Terminal Aerodrome Forecast
Issued by NWS Twin Cities, MN

Home | Current Version | Previous Version | Text Only | Print | Product List | Glossary On
Versions: 1 2 3 4 5 6 7 8 9 10 11 12 13 14 15 16 17
000
FTUS43 KMPX 201700
TAFSTC
TAF
KSTC 201739Z 2018/2118 08006KT P6SM SCT250
     FM210300 09003KT P6SM BKN250
     FM211300 30008KT P6SM SCT100
     FM211600 31014G21KT P6SM SCT250=

USA.gov is the U.S. government's official web portal to all federal, state and local government web resources and services.